Time;durP1;ratioP1;P1;durP2;ratioP2;P2;SDS_P1;SDS_P2;PMS_P1;PMS_P2;Temp;Humidity;BMP_temperature;BMP_pressure;BME280_temperature;BME280_humidity;BME280_pressure;Samples;Min_cycle;Max_cycle;Signal;HPM_P1;HPM_P2
2023/08/07 00:02:00;;;;;;;6.28;2.20;;;;;;;14.62;100.00;99694.72;5007269;28;20045;-73
2023/08/07 00:04:26;;;;;;;6.67;2.40;;;;;;;14.66;100.00;99692.44;5008616;28;20504;-78
2023/08/07 00:06:51;;;;;;;3.83;2.07;;;;;;;14.62;100.00;99659.81;5008415;28;20038;-76
2023/08/07 00:09:16;;;;;;;3.07;1.93;;;;;;;14.58;100.00;99634.41;5005632;28;20285;-74
2023/08/07 00:11:42;;;;;;;9.57;2.53;;;;;;;14.50;100.00;99640.84;4982030;28;20037;-74
2023/08/07 00:14:07;;;;;;;4.87;2.63;;;;;;;14.50;100.00;99637.31;5006482;28;20117;-73
2023/08/07 00:16:32;;;;;;;6.27;2.33;;;;;;;14.50;100.00;99613.16;5007806;28;20033;-72
2023/08/07 00:18:58;;;;;;;4.90;1.90;;;;;;;14.49;100.00;99617.72;5008066;28;20369;-73
2023/08/07 00:21:23;;;;;;;3.70;1.83;;;;;;;14.49;100.00;99590.84;5006714;28;20435;-73
2023/08/07 00:23:49;;;;;;;5.13;2.03;;;;;;;14.46;100.00;99610.06;4993067;28;20029;-72
2023/08/07 00:26:15;;;;;;;6.82;2.28;;;;;;;14.38;100.00;99596.91;5007760;28;20030;-72
2023/08/07 00:28:41;;;;;;;4.15;2.20;;;;;;;14.44;100.00;99614.00;4992932;28;20022;-74
2023/08/07 00:31:06;;;;;;;4.30;2.20;;;;;;;14.34;100.00;99609.94;4976608;28;20092;-76
2023/08/07 00:33:31;;;;;;;5.97;1.80;;;;;;;14.46;100.00;99623.50;4992572;28;20025;-77
2023/08/07 00:35:57;;;;;;;6.80;2.37;;;;;;;14.42;100.00;99606.19;5006163;28;20131;-74
2023/08/07 00:38:22;;;;;;;4.63;1.50;;;;;;;14.31;100.00;99588.88;5006201;28;20022;-74
2023/08/07 00:40:48;;;;;;;5.63;2.00;;;;;;;14.35;100.00;99600.84;4980406;28;20034;-74
2023/08/07 00:43:13;;;;;;;5.37;1.97;;;;;;;14.40;100.00;99613.63;4992929;28;20366;-73
2023/08/07 00:45:44;;;;;;;7.50;2.50;;;;;;;14.35;100.00;99576.69;4976476;28;20506;-73
2023/08/07 00:48:11;;;;;;;5.55;1.88;;;;;;;14.32;100.00;99589.69;5006439;28;20042;-74
2023/08/07 00:50:36;;;;;;;2.03;1.58;;;;;;;14.26;100.00;99582.53;4989741;28;20117;-75
2023/08/07 00:53:04;;;;;;;3.45;1.70;;;;;;;14.32;100.00;99587.84;4998941;28;20045;-73
2023/08/07 00:55:29;;;;;;;;;;;;;;;14.30;100.00;99589.91;5009030;28;20077;-73
2023/08/07 00:57:57;;;;;;;6.35;1.98;;;;;;;14.28;100.00;99605.44;4994816;28;19917;-73
2023/08/07 01:00:23;;;;;;;3.55;1.50;;;;;;;14.24;100.00;99598.84;5007221;28;20101;-73
2023/08/07 01:02:51;;;;;;;4.70;2.03;;;;;;;14.22;100.00;99600.91;4999934;28;20113;-73
2023/08/07 01:05:18;;;;;;;5.78;2.53;;;;;;;14.25;100.00;99605.84;4990122;28;20070;-75
2023/08/07 01:07:46;;;;;;;5.55;2.10;;;;;;;14.21;100.00;99626.13;4981469;28;20045;-74
2023/08/07 01:10:12;;;;;;;6.22;2.35;;;;;;;14.24;100.00;99614.13;5004068;28;20049;-73
2023/08/07 01:12:50;;;;;;;2.67;1.60;;;;;;;14.29;100.00;99617.81;4985332;28;20488;-73
2023/08/07 01:15:25;;;;;;;5.63;1.90;;;;;;;14.17;100.00;99607.97;5007489;28;20034;-74
2023/08/07 01:17:53;;;;;;;3.72;1.70;;;;;;;14.24;100.00;99640.97;5001581;28;20044;-74
2023/08/07 01:20:18;;;;;;;2.95;1.83;;;;;;;14.12;100.00;99596.00;5006998;28;20017;-73
2023/08/07 01:22:43;;;;;;;4.70;2.13;;;;;;;14.12;100.00;99601.38;5002543;28;20038;-73
2023/08/07 01:25:09;;;;;;;7.90;2.07;;;;;;;14.19;100.00;99617.44;4986295;28;20038;-74
2023/08/07 01:28:18;;;;;;;2.13;1.67;;;;;;;14.22;100.00;99630.44;4996624;28;20033;-72
2023/08/07 01:30:50;;;;;;;7.05;1.75;;;;;;;14.19;100.00;99617.44;4988861;28;20327;-73
2023/08/07 01:33:32;;;;;;;4.75;1.70;;;;;;;14.19;100.00;99614.78;4998210;28;20030;-73
2023/08/07 01:36:01;;;;;;;3.83;1.95;;;;;;;14.19;100.00;99638.94;4989213;28;20037;-74
2023/08/07 01:38:28;;;;;;;5.13;1.55;;;;;;;14.02;100.00;99605.53;4991524;28;20025;-73
2023/08/07 01:40:56;;;;;;;5.88;2.55;;;;;;;13.96;100.00;99628.69;4989234;28;20117;-73
2023/08/07 01:43:21;;;;;;;2.42;1.63;;;;;;;13.95;100.00;99648.50;4995326;28;20041;-74
2023/08/07 01:45:50;;;;;;;5.03;1.95;;;;;;;14.01;100.00;99636.91;5003423;28;20076;-75
2023/08/07 01:48:15;;;;;;;2.83;1.83;;;;;;;14.03;100.00;99634.03;5015852;28;20068;-74
2023/08/07 01:50:40;;;;;;;2.43;1.77;;;;;;;13.97;100.00;99630.31;5006373;28;20492;-75
2023/08/07 01:53:07;;;;;;;6.40;2.63;;;;;;;13.98;100.00;99617.72;4974901;28;20026;-75
2023/08/07 01:55:32;;;;;;;3.93;1.73;;;;;;;13.97;100.00;99624.97;4999287;28;20032;-73
2023/08/07 01:57:58;;;;;;;3.53;1.60;;;;;;;13.93;100.00;99631.81;4972355;28;20040;-72
2023/08/07 02:00:23;;;;;;;5.87;1.60;;;;;;;13.96;100.00;99641.28;5000670;28;20028;-76
2023/08/07 02:02:48;;;;;;;3.27;2.53;;;;;;;14.02;100.00;99637.75;5002134;28;20065;-73
2023/08/07 02:05:15;;;;;;;5.53;1.90;;;;;;;13.99;100.00;99647.03;5006354;28;20408;-73
2023/08/07 02:07:41;;;;;;;3.92;2.13;;;;;;;13.98;100.00;99637.34;4976178;28;20037;-73
2023/08/07 02:10:06;;;;;;;3.17;1.85;;;;;;;13.92;100.00;99640.88;5007362;28;20103;-76
2023/08/07 02:12:32;;;;;;;3.72;1.83;;;;;;;13.89;100.00;99660.91;4991497;28;20034;-74
2023/08/07 02:14:59;;;;;;;3.00;2.25;;;;;;;13.87;100.00;99646.06;4991046;28;20068;-72
2023/08/07 02:17:25;;;;;;;2.15;1.70;;;;;;;13.91;100.00;99642.75;4991074;28;20473;-73
2023/08/07 02:19:51;;;;;;;5.88;2.22;;;;;;;13.87;100.00;99633.44;4972680;28;20029;-76
2023/08/07 02:22:16;;;;;;;8.07;1.83;;;;;;;13.83;100.00;99656.38;4996963;28;20558;-76
2023/08/07 02:24:41;;;;;;;4.63;2.07;;;;;;;13.81;100.00;99660.28;4996991;28;20021;-73
2023/08/07 02:27:07;;;;;;;5.03;1.80;;;;;;;13.85;100.00;99656.97;4974850;28;20049;-73
2023/08/07 02:29:34;;;;;;;3.37;1.63;;;;;;;13.76;100.00;99660.09;5007356;28;20032;-73
2023/08/07 02:32:03;;;;;;;4.63;1.92;;;;;;;13.80;100.00;99697.03;5008034;28;20034;-73
2023/08/07 02:34:29;;;;;;;2.72;1.92;;;;;;;13.71;100.00;99684.88;5004582;28;20018;-73
2023/08/07 02:36:57;;;;;;;6.03;2.38;;;;;;;13.72;100.00;99695.41;4988131;28;20052;-73
2023/08/07 02:39:23;;;;;;;7.07;2.40;;;;;;;13.64;100.00;99692.09;5005845;28;20473;-73
2023/08/07 02:41:48;;;;;;;2.47;1.77;;;;;;;13.65;100.00;99707.16;4976395;28;20042;-75
2023/08/07 02:44:14;;;;;;;4.33;2.00;;;;;;;13.60;100.00;99720.38;4990478;28;20485;-73
2023/08/07 02:46:39;;;;;;;4.80;2.13;;;;;;;13.63;100.00;99719.97;4994291;28;20026;-73
2023/08/07 02:49:05;;;;;;;5.23;2.17;;;;;;;13.72;100.00;99719.53;4988732;28;20126;-73
2023/08/07 02:51:30;;;;;;;4.38;1.85;;;;;;;13.65;100.00;99720.56;4988078;28;20033;-74
2023/08/07 02:53:56;;;;;;;4.32;1.88;;;;;;;13.59;100.00;99713.38;4988732;28;20030;-77
2023/08/07 02:56:21;;;;;;;3.80;2.23;;;;;;;13.60;100.00;99720.38;4987741;28;20064;-76
2023/08/07 02:58:47;;;;;;;6.90;2.47;;;;;;;13.59;100.00;99719.53;5014770;28;20076;-73
2023/08/07 03:01:13;;;;;;;6.53;2.03;;;;;;;13.65;100.00;99728.59;4989133;28;20095;-73
2023/08/07 03:03:38;;;;;;;8.43;2.50;;;;;;;13.67;100.00;99732.75;5003035;28;20030;-74
2023/08/07 03:06:04;;;;;;;4.60;2.27;;;;;;;13.60;100.00;99736.47;5004215;28;20556;-73
2023/08/07 03:08:29;;;;;;;2.57;2.13;;;;;;;13.58;100.00;99754.59;4993485;28;20057;-72
2023/08/07 03:10:56;;;;;;;4.90;2.50;;;;;;;13.61;100.00;99754.22;5015723;28;20068;-76
2023/08/07 03:13:24;;;;;;;5.03;2.28;;;;;;;13.56;100.00;99740.59;4989623;28;20038;-73
2023/08/07 03:15:50;;;;;;;6.57;2.50;;;;;;;13.60;100.00;99753.41;5001186;28;20559;-73
2023/08/07 03:18:19;;;;;;;4.15;2.03;;;;;;;13.59;100.00;99750.91;4990160;28;20026;-73
2023/08/07 03:20:45;;;;;;;8.50;2.90;;;;;;;13.52;100.00;99751.72;4987902;28;20053;-74
2023/08/07 03:23:10;;;;;;;3.38;2.45;;;;;;;13.61;100.00;99752.34;5010832;28;20087;-75
2023/08/07 03:25:36;;;;;;;4.20;2.87;;;;;;;13.60;100.00;99747.19;4996277;28;20036;-78
2023/08/07 03:28:03;;;;;;;2.75;2.15;;;;;;;13.54;100.00;99745.34;4996381;28;20292;-73
2023/08/07 03:30:28;;;;;;;;;;;;;;;13.62;100.00;99762.03;4991748;28;20029;-73
2023/08/07 03:32:54;;;;;;;;;;;;;;;13.58;100.00;99766.19;4991777;28;19920;-72
2023/08/07 03:35:20;;;;;;;3.17;2.65;;;;;;;13.54;100.00;99750.72;5000358;28;19961;-73
2023/08/07 03:37:45;;;;;;;9.80;2.27;;;;;;;13.59;100.00;99743.69;4991319;28;20076;-73
2023/08/07 03:40:11;;;;;;;5.07;2.53;;;;;;;13.65;100.00;99747.38;5000750;28;20025;-77
2023/08/07 03:42:36;;;;;;;8.77;2.70;;;;;;;13.73;100.00;99744.50;5012234;28;20512;-74
2023/08/07 03:45:03;;;;;;;5.13;2.25;;;;;;;13.63;100.00;99730.69;4993370;28;20026;-73
2023/08/07 03:47:28;;;;;;;9.18;2.85;;;;;;;13.61;100.00;99733.56;4992906;28;20464;-73
2023/08/07 03:49:54;;;;;;;8.73;2.83;;;;;;;13.64;100.00;99732.34;4999070;28;20378;-73
2023/08/07 03:52:19;;;;;;;7.33;2.20;;;;;;;13.68;100.00;99733.56;4977825;28;20121;-73
2023/08/07 03:54:45;;;;;;;5.17;2.40;;;;;;;13.70;100.00;99731.53;4992927;28;20033;-73
2023/08/07 03:57:10;;;;;;;9.77;2.70;;;;;;;13.72;100.00;99745.56;4986178;28;20026;-75
2023/08/07 03:59:37;;;;;;;;;;;;;;;13.67;100.00;99742.63;5007581;28;20096;-75
2023/08/07 04:02:02;;;;;;;6.03;2.20;;;;;;;13.75;100.00;99755.03;5006848;28;19917;-73
2023/08/07 04:04:28;;;;;;;5.90;2.65;;;;;;;13.73;100.00;99745.31;5015619;28;20408;-73
2023/08/07 04:06:54;;;;;;;8.33;2.63;;;;;;;13.81;100.00;99755.00;4996045;28;20150;-74
2023/08/07 04:09:19;;;;;;;5.37;2.57;;;;;;;13.83;100.00;99760.19;5008106;28;20030;-73
2023/08/07 04:11:45;;;;;;;7.57;2.43;;;;;;;13.84;100.00;99770.72;4976339;28;20033;-73
2023/08/07 04:14:11;;;;;;;9.60;2.20;;;;;;;13.92;100.00;99772.34;4990742;28;20407;-73
2023/08/07 04:16:37;;;;;;;6.55;2.05;;;;;;;13.87;100.00;99764.09;4992280;28;20045;-74
2023/08/07 04:19:03;;;;;;;6.30;2.40;;;;;;;13.93;100.00;99769.47;5007930;28;20619;-74
2023/08/07 04:21:29;;;;;;;7.03;2.20;;;;;;;13.93;100.00;99758.72;4990064;28;20280;-73
2023/08/07 04:23:55;;;;;;;5.38;2.80;;;;;;;13.97;100.00;99747.56;4993990;28;20030;-73
2023/08/07 04:26:20;;;;;;;4.33;2.10;;;;;;;13.93;100.00;99753.38;4977301;28;20046;-74
2023/08/07 04:28:46;;;;;;;6.30;2.55;;;;;;;14.00;100.00;99763.25;4994690;28;20172;-77
2023/08/07 04:31:11;;;;;;;7.70;2.73;;;;;;;13.99;100.00;99756.25;4990623;28;20041;-76
2023/08/07 04:33:36;;;;;;;8.83;2.53;;;;;;;14.04;100.00;99762.63;5014847;28;20034;-74
2023/08/07 04:36:02;;;;;;;6.33;2.20;;;;;;;14.06;100.00;99759.75;4973808;28;20053;-74
2023/08/07 04:38:27;;;;;;;7.65;3.13;;;;;;;14.01;100.00;99760.38;4991900;28;20052;-73
2023/08/07 04:40:53;;;;;;;6.63;2.67;;;;;;;14.04;100.00;99767.16;5005243;28;20580;-73
2023/08/07 04:43:22;;;;;;;6.78;2.33;;;;;;;14.06;100.00;99765.09;4993523;28;20037;-73
2023/08/07 04:45:48;;;;;;;5.82;2.38;;;;;;;14.19;100.00;99767.78;4990222;28;20477;-73
2023/08/07 04:48:14;;;;;;;;;;;;;;;14.11;100.00;99759.94;4990387;28;20400;-74
2023/08/07 04:50:40;;;;;;;;;;;;;;;14.16;100.00;99762.81;4974131;28;19929;-73
2023/08/07 04:53:05;;;;;;;6.53;2.20;;;;;;;14.19;100.00;99762.41;5005962;28;20027;-73
2023/08/07 04:55:31;;;;;;;9.13;2.70;;;;;;;14.20;100.00;99758.66;5007926;28;20026;-77
2023/08/07 04:57:57;;;;;;;10.32;2.25;;;;;;;14.26;100.00;99757.84;4973482;28;20316;-76
2023/08/07 05:00:22;;;;;;;12.07;2.90;;;;;;;14.26;100.00;99747.09;4998058;28;20022;-73
2023/08/07 05:02:48;;;;;;;8.65;3.63;;;;;;;14.23;100.00;99752.88;5007227;28;20037;-75
2023/08/07 05:05:14;;;;;;;3.60;2.33;;;;;;;14.32;100.00;99767.72;5006904;28;20030;-74
2023/08/07 05:07:40;;;;;;;10.07;2.67;;;;;;;14.34;100.00;99760.28;5012365;28;20084;-73
2023/08/07 05:10:06;;;;;;;8.60;2.30;;;;;;;14.29;100.00;99746.66;4990992;28;20030;-75
2023/08/07 05:12:32;;;;;;;6.25;2.00;;;;;;;14.32;100.00;99759.66;4993211;28;20047;-73
2023/08/07 05:14:57;;;;;;;5.60;2.60;;;;;;;14.32;100.00;99742.75;4990957;28;20026;-73
2023/08/07 05:17:22;;;;;;;6.83;2.27;;;;;;;14.37;100.00;99742.91;5013852;28;20133;-73
2023/08/07 05:19:48;;;;;;;9.33;2.63;;;;;;;14.43;100.00;99744.78;5001750;28;20022;-73
2023/08/07 05:22:13;;;;;;;12.33;2.67;;;;;;;14.35;100.00;99719.00;5006506;28;20026;-74
2023/08/07 05:24:39;;;;;;;9.13;2.72;;;;;;;14.50;100.00;99732.16;5006801;28;20495;-73
2023/08/07 05:27:08;;;;;;;7.55;2.38;;;;;;;14.61;100.00;99728.00;4992315;28;20400;-75
2023/08/07 05:29:34;;;;;;;11.07;2.67;;;;;;;14.61;100.00;99713.72;4980774;28;20025;-73
2023/08/07 05:31:59;;;;;;;6.25;2.03;;;;;;;14.57;100.00;99703.41;5010886;28;20038;-73
2023/08/07 05:34:25;;;;;;;12.17;2.80;;;;;;;14.67;100.00;99694.09;4990852;28;20617;-73
2023/08/07 05:36:50;;;;;;;9.67;2.60;;;;;;;14.62;100.00;99675.91;5006955;28;20061;-74
2023/08/07 05:39:16;;;;;;;14.93;4.40;;;;;;;14.71;100.00;99674.63;4989002;28;20032;-77
2023/08/07 05:41:42;;;;;;;6.07;2.22;;;;;;;14.76;100.00;99665.94;5040155;23;20157;-93
2023/08/07 05:44:07;;;;;;;10.02;2.55;;;;;;;14.85;100.00;99678.06;5014392;28;20068;-92
2023/08/07 05:46:32;;;;;;;10.60;3.33;;;;;;;14.83;100.00;99645.22;5021268;28;20033;-91
2023/08/07 05:48:58;;;;;;;8.53;2.27;;;;;;;14.97;100.00;99633.31;5020210;28;20026;-92
2023/08/07 05:51:23;;;;;;;13.37;2.67;;;;;;;15.02;100.00;99631.84;5015918;28;20034;-91
2023/08/07 05:53:49;;;;;;;9.57;2.83;;;;;;;14.88;100.00;99606.94;5016496;28;20044;-91
2023/08/07 05:56:14;;;;;;;11.67;3.30;;;;;;;14.94;100.00;99617.63;4999479;28;20077;-92
2023/08/07 05:58:39;;;;;;;8.53;2.60;;;;;;;14.95;100.00;99602.34;5018888;28;20079;-93
2023/08/07 06:01:05;;;;;;;11.10;2.70;;;;;;;14.98;100.00;99593.81;5000773;28;20041;-92
2023/08/07 06:03:32;;;;;;;8.65;2.70;;;;;;;14.95;100.00;99588.91;5003340;28;20022;-91
2023/08/07 06:05:57;;;;;;;14.48;4.43;;;;;;;15.06;100.00;99563.19;5000798;28;20033;-92
2023/08/07 06:08:23;;;;;;;12.37;2.70;;;;;;;15.09;100.00;99551.97;5014733;28;20589;-91
2023/08/07 06:10:48;;;;;;;14.00;3.13;;;;;;;15.23;100.00;99563.44;4999652;28;20068;-92
2023/08/07 06:13:14;;;;;;;9.03;3.13;;;;;;;15.20;100.00;99535.13;5032897;28;20025;-92
2023/08/07 06:15:39;;;;;;;15.87;4.00;;;;;;;15.28;100.00;99542.88;4998281;28;20511;-92
2023/08/07 06:18:04;;;;;;;12.13;2.70;;;;;;;15.15;100.00;99511.59;5002790;28;20044;-91
2023/08/07 06:20:30;;;;;;;14.63;2.63;;;;;;;15.12;100.00;99455.56;5015476;28;20029;-90
2023/08/07 06:22:55;;;;;;;11.07;3.00;;;;;;;15.08;100.00;99421.31;5016095;28;20875;-91
2023/08/07 06:25:21;;;;;;;11.03;3.20;;;;;;;15.16;100.00;99455.97;5018769;28;20033;-92
2023/08/07 06:27:46;;;;;;;11.05;3.25;;;;;;;15.17;100.00;99436.94;5001406;28;20026;-92
2023/08/07 06:30:13;;;;;;;12.60;3.45;;;;;;;15.30;100.00;99397.47;5015401;28;20060;-93
2023/08/07 06:32:39;;;;;;;14.77;4.47;;;;;;;15.23;100.00;99370.66;5015809;28;20022;-91
2023/08/07 06:35:05;;;;;;;14.18;3.78;;;;;;;15.44;100.00;99393.56;5012496;28;20053;-92
2023/08/07 06:37:30;;;;;;;14.73;3.67;;;;;;;15.44;100.00;99328.22;5019538;28;20037;-92
2023/08/07 06:39:56;;;;;;;16.02;3.00;;;;;;;15.41;100.00;99324.13;5018863;28;20029;-93
2023/08/07 06:42:21;;;;;;;20.57;3.83;;;;;;;15.33;100.00;99284.09;5034791;28;20037;-93
2023/08/07 06:44:47;;;;;;;13.03;3.03;;;;;;;15.46;100.00;99253.50;5019017;28;20296;-92
2023/08/07 06:47:13;;;;;;;18.13;3.35;;;;;;;15.49;100.00;99224.25;5021233;28;20033;-94
2023/08/07 06:49:38;;;;;;;13.77;2.87;;;;;;;15.54;100.00;99188.59;5015702;28;20066;-90
2023/08/07 06:52:04;;;;;;;15.17;4.40;;;;;;;15.45;100.00;99160.41;4997507;28;20034;-92
2023/08/07 06:54:29;;;;;;;13.05;5.18;;;;;;;15.54;100.00;99173.28;5013224;28;20033;-92
2023/08/07 06:56:55;;;;;;;14.10;3.57;;;;;;;15.62;100.00;99191.78;5018939;28;20029;-92
2023/08/07 06:59:20;;;;;;;11.73;3.17;;;;;;;15.46;100.00;99130.59;5011522;28;20043;-92
2023/08/07 07:01:46;;;;;;;15.67;4.17;;;;;;;15.52;100.00;99127.00;4999985;28;20128;-92
2023/08/07 07:04:12;;;;;;;8.60;3.75;;;;;;;15.51;100.00;99136.09;5002131;28;20090;-93
2023/08/07 07:06:38;;;;;;;13.40;3.92;;;;;;;15.49;100.00;99116.69;5003872;28;20037;-92
2023/08/07 07:09:03;;;;;;;16.30;3.70;;;;;;;15.43;100.00;99088.06;5003381;28;20025;-93
2023/08/07 07:11:29;;;;;;;13.77;3.90;;;;;;;15.61;100.00;99146.25;5017001;28;20034;-92
2023/08/07 07:13:54;;;;;;;17.67;3.17;;;;;;;15.62;100.00;99154.09;5016587;28;20045;-91
2023/08/07 07:16:23;;;;;;;15.50;4.33;;;;;;;15.60;100.00;99109.66;5006870;28;20135;-89
2023/08/07 07:18:50;;;;;;;22.38;4.35;;;;;;;15.60;100.00;99188.50;5022569;28;20032;-92
2023/08/07 07:21:15;;;;;;;17.52;3.15;;;;;;;15.70;100.00;99179.88;5026561;28;20042;-93
2023/08/07 07:23:41;;;;;;;19.30;5.07;;;;;;;15.60;100.00;99113.16;5013157;28;20447;-92
2023/08/07 07:26:06;;;;;;;12.80;3.80;;;;;;;15.53;100.00;99128.63;5005442;28;20033;-91
2023/08/07 07:28:32;;;;;;;14.20;4.33;;;;;;;15.55;100.00;99105.00;5021735;28;20492;-92
2023/08/07 07:30:57;;;;;;;16.80;4.35;;;;;;;15.69;100.00;99137.03;5013154;28;20093;-92
2023/08/07 07:33:23;;;;;;;15.67;3.87;;;;;;;15.75;100.00;99134.22;5019405;28;20029;-92
2023/08/07 07:35:48;;;;;;;13.33;4.23;;;;;;;15.81;100.00;99140.56;5015652;28;20034;-92
2023/08/07 07:38:15;;;;;;;13.05;3.20;;;;;;;15.83;100.00;99186.91;5020662;28;20401;-90
2023/08/07 07:40:40;;;;;;;18.00;3.67;;;;;;;15.90;100.00;99217.19;5020226;28;20037;-93
2023/08/07 07:43:09;;;;;;;13.13;3.73;;;;;;;15.85;100.00;99112.13;5005266;28;20037;-92
2023/08/07 07:45:35;;;;;;;17.85;3.78;;;;;;;15.95;100.00;99135.75;5023521;28;21001;-92
2023/08/07 07:48:02;;;;;;;15.10;4.45;;;;;;;15.92;100.00;99120.06;5022172;28;20033;-94
2023/08/07 07:50:27;;;;;;;16.83;4.03;;;;;;;15.84;100.00;99062.03;5013262;28;20026;-92
2023/08/07 07:52:53;;;;;;;15.70;3.95;;;;;;;15.73;100.00;99079.03;5023569;28;20475;-91
2023/08/07 07:55:19;;;;;;;15.50;4.83;;;;;;;15.83;100.00;99149.22;5001823;28;20025;-95
2023/08/07 07:57:44;;;;;;;16.75;4.20;;;;;;;15.90;100.00;99211.00;5002470;28;20036;-93
2023/08/07 08:00:14;;;;;;;16.93;3.60;;;;;;;15.87;100.00;99152.25;4999164;28;20061;-92
2023/08/07 08:02:43;;;;;;;11.85;3.67;;;;;;;15.85;100.00;99232.38;5018050;28;20038;-94
2023/08/07 08:05:10;;;;;;;23.77;5.47;;;;;;;15.76;100.00;99211.22;5006619;28;20030;-91
2023/08/07 08:07:38;;;;;;;15.05;4.25;;;;;;;15.97;100.00;99203.63;5007707;28;20042;-90
2023/08/07 08:10:06;;;;;;;13.93;3.60;;;;;;;16.00;100.00;99208.53;5002868;28;20021;-91
2023/08/07 08:12:31;;;;;;;18.30;4.65;;;;;;;16.04;100.00;99220.47;5017388;28;20041;-92
2023/08/07 08:14:57;;;;;;;17.27;3.57;;;;;;;16.08;100.00;99234.25;5024897;28;20033;-92
2023/08/07 08:17:23;;;;;;;17.80;4.43;;;;;;;16.08;100.00;99259.31;5018626;28;20392;-92
2023/08/07 08:19:48;;;;;;;18.00;4.43;;;;;;;15.98;100.00;99189.91;5000134;28;20084;-93
2023/08/07 08:25:46;;;;;;;21.20;4.32;;;;;;;16.11;100.00;99290.31;4961530;28;20046;-93
2023/08/07 08:28:15;;;;;;;14.55;4.68;;;;;;;16.25;100.00;99297.94;4962678;28;20523;-93
2023/08/07 08:30:42;;;;;;;18.42;5.10;;;;;;;16.20;100.00;99261.97;4942448;29;20039;-94
2023/08/07 08:33:09;;;;;;;18.65;4.00;;;;;;;16.09;100.00;99227.84;4981276;28;20043;-90
2023/08/07 08:35:34;;;;;;;11.15;3.92;;;;;;;16.24;100.00;99255.91;4971072;28;20034;-89
2023/08/07 08:38:21;;;;;;;16.98;4.00;;;;;;;16.33;100.00;99264.44;4972694;28;20510;-91
2023/08/07 08:40:51;;;;;;;18.30;4.88;;;;;;;16.59;100.00;99264.97;4903768;29;20033;-91
2023/08/07 08:43:17;;;;;;;13.93;3.83;;;;;;;16.58;100.00;99206.78;4903285;29;20047;-92
2023/08/07 08:45:43;;;;;;;17.83;4.28;;;;;;;16.82;100.00;99205.66;4908290;29;20063;-91
2023/08/07 08:48:21;;;;;;;14.10;3.50;;;;;;;16.64;100.00;99082.69;4892214;29;20048;-93
2023/08/07 08:50:51;;;;;;;18.48;3.72;;;;;;;16.81;100.00;99088.16;4915192;29;20152;-92
2023/08/07 08:53:18;;;;;;;18.90;4.32;;;;;;;16.82;100.00;99041.25;4891804;29;20036;-91
2023/08/07 08:55:47;;;;;;;11.45;2.92;;;;;;;16.72;100.00;99016.81;4890599;29;20046;-93
2023/08/07 08:58:17;;;;;;;15.38;4.47;;;;;;;16.84;100.00;99057.19;4893602;29;20052;-90
2023/08/07 09:00:43;;;;;;;17.17;3.95;;;;;;;16.92;100.00;99064.03;4912321;29;20035;-91
2023/08/07 09:03:08;;;;;;;14.35;3.92;;;;;;;16.59;100.00;98941.69;4905773;29;20036;-92
2023/08/07 09:05:35;;;;;;;20.42;3.88;;;;;;;16.56;100.00;98958.34;4921593;29;20035;-91
2023/08/07 09:08:01;;;;;;;22.13;4.75;;;;;;;16.71;100.00;98858.06;4936430;29;20495;-89
2023/08/07 09:10:27;;;;;;;12.68;4.10;;;;;;;16.52;100.00;98877.22;4926552;29;20114;-92
2023/08/07 09:13:03;;;;;;;15.30;3.50;;;;;;;16.86;100.00;99052.38;4934769;29;20139;-91
2023/08/07 09:15:31;;;;;;;16.20;3.78;;;;;;;17.00;100.00;99037.50;4927894;28;20043;-92
2023/08/07 09:17:57;;;;;;;16.58;4.10;;;;;;;17.23;100.00;99068.88;4977311;28;20045;-93
2023/08/07 09:20:24;;;;;;;17.80;4.43;;;;;;;17.24;100.00;98957.22;4995303;28;20030;-93
2023/08/07 09:22:50;;;;;;;15.63;4.18;;;;;;;17.29;100.00;98810.84;4991965;28;20029;-91
2023/08/07 09:25:27;;;;;;;16.97;4.47;;;;;;;17.15;100.00;98799.63;5006966;28;20058;-91
2023/08/07 09:27:54;;;;;;;9.32;3.40;;;;;;;17.33;100.00;98714.88;5015041;28;20124;-93
2023/08/07 09:30:20;;;;;;;21.38;3.83;;;;;;;17.11;100.00;98580.13;5014708;28;20022;-92
2023/08/07 09:32:48;;;;;;;12.85;3.83;;;;;;;17.03;100.00;98515.91;5018628;28;20020;-93
2023/08/07 09:35:13;;;;;;;14.52;3.97;;;;;;;16.90;100.00;98438.19;5032780;28;20030;-91
2023/08/07 09:37:39;;;;;;;14.30;3.97;;;;;;;17.08;100.00;98541.00;5013249;28;20041;-90
2023/08/07 09:40:05;;;;;;;13.27;4.67;;;;;;;17.08;100.00;98559.06;4994689;28;20113;-92
2023/08/07 09:42:34;;;;;;;20.52;4.35;;;;;;;16.97;100.00;98675.97;4976134;28;20037;-94
2023/08/07 09:45:00;;;;;;;18.40;3.58;;;;;;;16.58;100.00;98514.47;4995944;28;20036;-89
2023/08/07 09:47:25;;;;;;;10.07;3.90;;;;;;;16.52;100.00;98639.38;5015767;28;20113;-92
2023/08/07 09:49:54;;;;;;;16.57;3.93;;;;;;;16.37;100.00;98591.53;5016497;28;20098;-91
2023/08/07 09:52:20;;;;;;;14.15;3.47;;;;;;;16.35;100.00;98661.00;5012153;28;20411;-91
2023/08/07 09:54:45;;;;;;;18.20;4.13;;;;;;;16.20;100.00;98513.53;4996144;28;20078;-92
2023/08/07 09:57:13;;;;;;;16.03;4.80;;;;;;;16.01;100.00;98425.09;5015776;28;20356;-94
2023/08/07 09:59:40;;;;;;;12.32;3.83;;;;;;;16.26;100.00;98558.28;5031269;28;20140;-93
2023/08/07 10:02:06;;;;;;;17.80;3.70;;;;;;;16.37;100.00;98546.56;4999252;28;20034;-93
2023/08/07 10:04:32;;;;;;;14.38;4.05;;;;;;;16.49;100.00;98576.03;5020219;28;20028;-91
2023/08/07 10:06:58;;;;;;;13.80;3.65;;;;;;;16.71;100.00;98621.78;5014474;28;20034;-90
2023/08/07 10:09:24;;;;;;;17.00;3.70;;;;;;;16.71;100.00;98562.50;5017864;28;20017;-93
2023/08/07 10:11:50;;;;;;;11.23;3.15;;;;;;;16.86;100.00;98592.31;5000660;28;20065;-91
2023/08/07 10:14:16;;;;;;;12.05;3.10;;;;;;;17.12;100.00;98772.38;5007429;28;20265;-94
2023/08/07 10:16:42;;;;;;;;;;;;;;;17.13;100.00;98858.38;5009948;28;20105;-94
2023/08/07 10:19:11;;;;;;;;;;;;;;;17.00;100.00;98819.16;5003961;28;19951;-90
2023/08/07 10:21:39;;;;;;;12.40;3.40;;;;;;;16.96;100.00;98747.13;5004849;28;19917;-95
2023/08/07 10:24:05;;;;;;;14.73;3.30;;;;;;;17.10;100.00;98742.97;5037199;28;20037;-94
2023/08/07 10:26:37;;;;;;;13.93;3.97;;;;;;;17.23;100.00;98833.41;5001912;28;20037;-93
2023/08/07 10:29:07;;;;;;;17.17;2.90;;;;;;;16.92;100.00;98757.59;4999554;28;20041;-93
2023/08/07 10:31:35;;;;;;;13.68;4.13;;;;;;;17.01;100.00;98871.19;5012947;28;20025;-92
2023/08/07 10:34:01;;;;;;;29.15;6.20;;;;;;;16.86;100.00;98823.28;4999365;28;20030;-92
2023/08/07 10:36:34;;;;;;;15.35;3.10;;;;;;;17.22;100.00;98799.44;4996958;28;20029;-91
2023/08/07 10:39:18;;;;;;;11.95;3.15;;;;;;;17.12;100.00;98821.72;5014257;28;20092;-93
2023/08/07 10:41:56;;;;;;;13.15;3.10;;;;;;;17.07;100.00;98783.91;4983502;28;20045;-91
2023/08/07 10:44:30;;;;;;;15.07;4.95;;;;;;;17.04;100.00;98669.31;5017190;28;20045;-92
2023/08/07 10:46:57;;;;;;;27.40;4.22;;;;;;;16.82;100.00;98696.31;5017955;28;20040;-92
2023/08/07 10:49:36;;;;;;;16.20;4.32;;;;;;;16.60;100.00;98770.91;5033336;28;20355;-91
2023/08/07 10:52:10;;;;;;;21.00;4.72;;;;;;;16.87;100.00;99080.94;5037022;28;20107;-95
2023/08/07 10:54:49;;;;;;;13.57;3.33;;;;;;;18.67;100.00;99230.09;4999874;28;20040;-93
2023/08/07 10:57:17;;;;;;;15.57;3.40;;;;;;;18.61;100.00;98552.75;5018259;28;20038;-92
2023/08/07 10:59:59;;;;;;;9.15;3.05;;;;;;;18.20;100.00;98531.88;4998876;28;20018;-92
2023/08/07 11:02:26;;;;;;;12.77;3.42;;;;;;;17.40;100.00;98437.66;5015137;28;20065;-92
2023/08/07 11:04:53;;;;;;;12.38;3.17;;;;;;;17.05;100.00;98562.28;5001261;28;20014;-91
2023/08/07 11:07:30;;;;;;;17.05;3.22;;;;;;;16.79;100.00;98527.06;4998251;28;20056;-92
2023/08/07 11:10:03;;;;;;;11.07;2.47;;;;;;;17.30;100.00;98642.53;5000794;28;20232;-94
2023/08/07 11:12:29;;;;;;;9.25;2.28;;;;;;;17.12;100.00;98390.34;5024221;28;20034;-93
2023/08/07 11:14:58;;;;;;;5.40;1.52;;;;;;;16.73;100.00;98167.00;5005771;28;20388;-93
2023/08/07 11:17:28;;;;;;;6.50;2.50;;;;;;;16.65;100.00;98408.09;5014205;28;20049;-92
2023/08/07 11:19:57;;;;;;;15.40;3.05;;;;;;;16.84;100.00;98458.91;4996955;28;20292;-92
2023/08/07 11:22:23;;;;;;;5.43;1.60;;;;;;;17.03;100.00;98632.63;5002687;28;20026;-92
2023/08/07 11:24:50;;;;;;;4.65;1.83;;;;;;;17.16;100.00;98633.25;5000954;28;20030;-92
2023/08/07 11:27:15;;;;;;;8.40;1.73;;;;;;;17.68;100.00;98663.09;5009537;28;20038;-92